Terminal Aerodrome Forecast
Issued by NWS

Home | Current Version | Previous Version | Graphics & Text | Print | Product List | Glossary On
Versions: 1 2 3 4 5 6 7 8 9 10 11 12 13 14 15 16 17
000
FTUS42 KMHX 252300
TAFPGV
TAF
KPGV 252321Z 2600/2624 16005KT P6SM SKC
     FM260500 21003KT P6SM SCT100 BKN250
     FM261000 VRB03KT P6SM OVC100
     FM261500 24004KT P6SM OVC050
     FM262200 30005KT P6SM VCSH OVC030
      AMD LTD TO CLD VIS AND WIND=

USA.gov is the U.S. government's official web portal to all federal, state and local government web resources and services.